sensor_id;sensor_type;location;lat;lon;timestamp;P1;durP1;ratioP1;P2;durP2;ratioP2
81336;SDS011;70799;48.000;10.584;2024-03-02T00:01:42;19.08;;;8.38;;
81336;SDS011;70799;48.000;10.584;2024-03-02T00:04:18;19.38;;;7.80;;
81336;SDS011;70799;48.000;10.584;2024-03-02T00:06:54;18.80;;;7.78;;
81336;SDS011;70799;48.000;10.584;2024-03-02T00:09:33;16.08;;;7.65;;
81336;SDS011;70799;48.000;10.584;2024-03-02T00:12:10;17.20;;;7.57;;
81336;SDS011;70799;48.000;10.584;2024-03-02T00:14:48;18.20;;;8.30;;
81336;SDS011;70799;48.000;10.584;2024-03-02T00:17:24;16.40;;;8.30;;
81336;SDS011;70799;48.000;10.584;2024-03-02T00:20:02;19.45;;;8.38;;
81336;SDS011;70799;48.000;10.584;2024-03-02T00:22:39;15.30;;;7.60;;
81336;SDS011;70799;48.000;10.584;2024-03-02T00:25:17;15.48;;;7.25;;
81336;SDS011;70799;48.000;10.584;2024-03-02T00:27:53;15.32;;;7.72;;
81336;SDS011;70799;48.000;10.584;2024-03-02T00:33:37;17.95;;;7.72;;
81336;SDS011;70799;48.000;10.584;2024-03-02T00:36:29;16.13;;;8.25;;
81336;SDS011;70799;48.000;10.584;2024-03-02T00:39:05;16.25;;;7.28;;
81336;SDS011;70799;48.000;10.584;2024-03-02T00:41:43;15.10;;;7.18;;
81336;SDS011;70799;48.000;10.584;2024-03-02T00:46:55;14.90;;;6.90;;
81336;SDS011;70799;48.000;10.584;2024-03-02T00:49:32;16.35;;;8.18;;
81336;SDS011;70799;48.000;10.584;2024-03-02T00:52:11;18.98;;;7.18;;
81336;SDS011;70799;48.000;10.584;2024-03-02T00:54:47;17.08;;;7.82;;
81336;SDS011;70799;48.000;10.584;2024-03-02T00:57:23;18.08;;;7.70;;
81336;SDS011;70799;48.000;10.584;2024-03-02T01:03:43;15.80;;;6.78;;
81336;SDS011;70799;48.000;10.584;2024-03-02T01:06:19;17.38;;;7.07;;
81336;SDS011;70799;48.000;10.584;2024-03-02T01:08:55;14.85;;;7.95;;
81336;SDS011;70799;48.000;10.584;2024-03-02T01:11:36;18.83;;;7.68;;
81336;SDS011;70799;48.000;10.584;2024-03-02T01:14:18;20.17;;;7.90;;
81336;SDS011;70799;48.000;10.584;2024-03-02T01:19:36;14.70;;;6.82;;
81336;SDS011;70799;48.000;10.584;2024-03-02T01:22:13;17.55;;;7.45;;
81336;SDS011;70799;48.000;10.584;2024-03-02T01:24:52;19.48;;;7.65;;
81336;SDS011;70799;48.000;10.584;2024-03-02T01:27:28;15.88;;;7.20;;
81336;SDS011;70799;48.000;10.584;2024-03-02T01:30:04;18.20;;;8.77;;
81336;SDS011;70799;48.000;10.584;2024-03-02T01:32:41;19.58;;;8.15;;
81336;SDS011;70799;48.000;10.584;2024-03-02T01:35:17;18.85;;;8.70;;
81336;SDS011;70799;48.000;10.584;2024-03-02T01:38:31;17.20;;;8.35;;
81336;SDS011;70799;48.000;10.584;2024-03-02T01:42:03;18.42;;;7.25;;
81336;SDS011;70799;48.000;10.584;2024-03-02T01:45:44;18.35;;;7.10;;
81336;SDS011;70799;48.000;10.584;2024-03-02T01:48:23;14.85;;;7.47;;
81336;SDS011;70799;48.000;10.584;2024-03-02T01:51:04;17.13;;;7.03;;
81336;SDS011;70799;48.000;10.584;2024-03-02T01:54:38;15.40;;;7.47;;
81336;SDS011;70799;48.000;10.584;2024-03-02T01:57:26;15.80;;;6.68;;
81336;SDS011;70799;48.000;10.584;2024-03-02T02:00:12;14.75;;;6.55;;
81336;SDS011;70799;48.000;10.584;2024-03-02T02:03:04;14.68;;;7.75;;
81336;SDS011;70799;48.000;10.584;2024-03-02T02:06:01;15.90;;;7.65;;
81336;SDS011;70799;48.000;10.584;2024-03-02T02:08:37;14.30;;;6.88;;
81336;SDS011;70799;48.000;10.584;2024-03-02T02:11:55;15.05;;;7.30;;
81336;SDS011;70799;48.000;10.584;2024-03-02T02:18:11;14.98;;;7.25;;
81336;SDS011;70799;48.000;10.584;2024-03-02T02:23:49;13.30;;;6.47;;
81336;SDS011;70799;48.000;10.584;2024-03-02T02:26:26;12.93;;;6.93;;
81336;SDS011;70799;48.000;10.584;2024-03-02T02:29:02;15.95;;;6.80;;
81336;SDS011;70799;48.000;10.584;2024-03-02T02:31:39;15.95;;;7.05;;
81336;SDS011;70799;48.000;10.584;2024-03-02T02:34:15;13.98;;;7.47;;
81336;SDS011;70799;48.000;10.584;2024-03-02T02:36:51;14.57;;;7.20;;
81336;SDS011;70799;48.000;10.584;2024-03-02T02:39:30;16.65;;;7.90;;
81336;SDS011;70799;48.000;10.584;2024-03-02T02:42:06;13.30;;;6.82;;
81336;SDS011;70799;48.000;10.584;2024-03-02T02:44:42;14.95;;;7.53;;
81336;SDS011;70799;48.000;10.584;2024-03-02T02:47:18;14.20;;;6.80;;
81336;SDS011;70799;48.000;10.584;2024-03-02T02:49:54;13.80;;;6.28;;
81336;SDS011;70799;48.000;10.584;2024-03-02T02:52:31;13.45;;;6.75;;
81336;SDS011;70799;48.000;10.584;2024-03-02T02:55:12;13.70;;;6.95;;
81336;SDS011;70799;48.000;10.584;2024-03-02T02:57:48;13.70;;;6.30;;
81336;SDS011;70799;48.000;10.584;2024-03-02T03:00:24;13.40;;;6.50;;
81336;SDS011;70799;48.000;10.584;2024-03-02T03:03:00;12.10;;;5.55;;
81336;SDS011;70799;48.000;10.584;2024-03-02T03:05:37;11.85;;;6.05;;
81336;SDS011;70799;48.000;10.584;2024-03-02T03:08:13;12.30;;;6.28;;
81336;SDS011;70799;48.000;10.584;2024-03-02T03:10:49;15.18;;;7.00;;
81336;SDS011;70799;48.000;10.584;2024-03-02T03:13:25;11.95;;;6.57;;
81336;SDS011;70799;48.000;10.584;2024-03-02T03:16:01;14.55;;;6.78;;
81336;SDS011;70799;48.000;10.584;2024-03-02T03:18:37;13.55;;;5.80;;
81336;SDS011;70799;48.000;10.584;2024-03-02T03:21:13;13.75;;;6.97;;
81336;SDS011;70799;48.000;10.584;2024-03-02T03:23:49;12.43;;;7.20;;
81336;SDS011;70799;48.000;10.584;2024-03-02T03:26:27;13.38;;;6.57;;
81336;SDS011;70799;48.000;10.584;2024-03-02T03:29:03;13.05;;;6.63;;
81336;SDS011;70799;48.000;10.584;2024-03-02T03:31:39;15.10;;;6.60;;
81336;SDS011;70799;48.000;10.584;2024-03-02T03:34:15;16.27;;;7.00;;
81336;SDS011;70799;48.000;10.584;2024-03-02T03:36:51;12.98;;;6.25;;
81336;SDS011;70799;48.000;10.584;2024-03-02T03:39:27;12.40;;;6.50;;
81336;SDS011;70799;48.000;10.584;2024-03-02T03:42:03;13.75;;;7.13;;
81336;SDS011;70799;48.000;10.584;2024-03-02T03:44:39;16.48;;;7.00;;
81336;SDS011;70799;48.000;10.584;2024-03-02T03:47:15;15.60;;;7.03;;
81336;SDS011;70799;48.000;10.584;2024-03-02T03:49:52;15.98;;;6.68;;
81336;SDS011;70799;48.000;10.584;2024-03-02T03:52:28;12.27;;;5.80;;
81336;SDS011;70799;48.000;10.584;2024-03-02T03:55:04;10.90;;;5.50;;
81336;SDS011;70799;48.000;10.584;2024-03-02T03:57:40;13.07;;;5.63;;
81336;SDS011;70799;48.000;10.584;2024-03-02T04:00:16;13.52;;;6.38;;
81336;SDS011;70799;48.000;10.584;2024-03-02T04:02:52;11.55;;;6.30;;
81336;SDS011;70799;48.000;10.584;2024-03-02T04:05:28;13.98;;;7.35;;
81336;SDS011;70799;48.000;10.584;2024-03-02T04:08:04;14.75;;;6.65;;
81336;SDS011;70799;48.000;10.584;2024-03-02T04:13:16;10.50;;;4.82;;
81336;SDS011;70799;48.000;10.584;2024-03-02T04:15:52;10.07;;;5.55;;
81336;SDS011;70799;48.000;10.584;2024-03-02T04:18:29;10.77;;;5.50;;
81336;SDS011;70799;48.000;10.584;2024-03-02T04:21:05;12.43;;;6.00;;
81336;SDS011;70799;48.000;10.584;2024-03-02T04:26:17;10.70;;;5.63;;
81336;SDS011;70799;48.000;10.584;2024-03-02T04:28:54;12.45;;;6.53;;
81336;SDS011;70799;48.000;10.584;2024-03-02T04:31:30;12.00;;;5.40;;
81336;SDS011;70799;48.000;10.584;2024-03-02T04:34:06;12.77;;;5.63;;
81336;SDS011;70799;48.000;10.584;2024-03-02T04:36:42;10.65;;;5.45;;
81336;SDS011;70799;48.000;10.584;2024-03-02T04:39:18;12.05;;;5.60;;
81336;SDS011;70799;48.000;10.584;2024-03-02T04:41:54;11.10;;;5.53;;
81336;SDS011;70799;48.000;10.584;2024-03-02T04:44:33;13.50;;;6.15;;
81336;SDS011;70799;48.000;10.584;2024-03-02T04:47:10;11.95;;;6.28;;
81336;SDS011;70799;48.000;10.584;2024-03-02T04:49:46;12.68;;;6.22;;
81336;SDS011;70799;48.000;10.584;2024-03-02T04:52:22;10.90;;;5.97;;
81336;SDS011;70799;48.000;10.584;2024-03-02T04:54:58;12.27;;;6.30;;
81336;SDS011;70799;48.000;10.584;2024-03-02T04:57:46;13.30;;;6.10;;
81336;SDS011;70799;48.000;10.584;2024-03-02T05:00:23;10.85;;;6.60;;
81336;SDS011;70799;48.000;10.584;2024-03-02T05:02:59;12.90;;;6.65;;
81336;SDS011;70799;48.000;10.584;2024-03-02T05:05:37;13.07;;;5.97;;
81336;SDS011;70799;48.000;10.584;2024-03-02T05:08:13;12.93;;;6.13;;
81336;SDS011;70799;48.000;10.584;2024-03-02T05:10:49;15.70;;;6.35;;
81336;SDS011;70799;48.000;10.584;2024-03-02T05:13:25;13.70;;;6.10;;
81336;SDS011;70799;48.000;10.584;2024-03-02T05:16:01;13.82;;;6.53;;
81336;SDS011;70799;48.000;10.584;2024-03-02T05:18:37;14.15;;;6.40;;
81336;SDS011;70799;48.000;10.584;2024-03-02T05:21:14;14.35;;;6.80;;
81336;SDS011;70799;48.000;10.584;2024-03-02T05:23:50;14.43;;;6.45;;
81336;SDS011;70799;48.000;10.584;2024-03-02T05:26:26;12.15;;;5.47;;
81336;SDS011;70799;48.000;10.584;2024-03-02T05:29:02;13.93;;;5.72;;
81336;SDS011;70799;48.000;10.584;2024-03-02T05:31:38;10.38;;;5.40;;
81336;SDS011;70799;48.000;10.584;2024-03-02T05:34:14;12.45;;;5.93;;
81336;SDS011;70799;48.000;10.584;2024-03-02T05:36:56;12.85;;;5.88;;
81336;SDS011;70799;48.000;10.584;2024-03-02T05:39:36;12.65;;;6.05;;
81336;SDS011;70799;48.000;10.584;2024-03-02T05:42:12;14.05;;;5.97;;
81336;SDS011;70799;48.000;10.584;2024-03-02T05:44:49;12.30;;;5.38;;
81336;SDS011;70799;48.000;10.584;2024-03-02T05:47:26;14.70;;;6.35;;
81336;SDS011;70799;48.000;10.584;2024-03-02T05:50:02;17.15;;;6.57;;
81336;SDS011;70799;48.000;10.584;2024-03-02T05:52:39;15.23;;;6.65;;
81336;SDS011;70799;48.000;10.584;2024-03-02T05:55:15;15.57;;;6.18;;
81336;SDS011;70799;48.000;10.584;2024-03-02T06:00:43;10.32;;;5.53;;
81336;SDS011;70799;48.000;10.584;2024-03-02T06:03:20;12.75;;;5.90;;
81336;SDS011;70799;48.000;10.584;2024-03-02T06:05:55;11.73;;;5.25;;
81336;SDS011;70799;48.000;10.584;2024-03-02T06:08:35;11.80;;;5.90;;
81336;SDS011;70799;48.000;10.584;2024-03-02T06:11:11;12.75;;;6.07;;
81336;SDS011;70799;48.000;10.584;2024-03-02T06:16:23;10.50;;;5.05;;
81336;SDS011;70799;48.000;10.584;2024-03-02T06:18:59;13.35;;;5.30;;
81336;SDS011;70799;48.000;10.584;2024-03-02T06:21:38;12.27;;;4.97;;
81336;SDS011;70799;48.000;10.584;2024-03-02T06:26:50;11.65;;;5.15;;
81336;SDS011;70799;48.000;10.584;2024-03-02T06:29:26;13.23;;;5.60;;
81336;SDS011;70799;48.000;10.584;2024-03-02T06:32:02;11.43;;;5.13;;
81336;SDS011;70799;48.000;10.584;2024-03-02T06:37:14;11.90;;;4.65;;
81336;SDS011;70799;48.000;10.584;2024-03-02T06:39:50;12.00;;;5.70;;
81336;SDS011;70799;48.000;10.584;2024-03-02T06:42:26;10.98;;;5.10;;
81336;SDS011;70799;48.000;10.584;2024-03-02T06:45:05;11.05;;;6.22;;
81336;SDS011;70799;48.000;10.584;2024-03-02T06:47:43;13.27;;;6.20;;
81336;SDS011;70799;48.000;10.584;2024-03-02T06:52:55;12.43;;;6.60;;
81336;SDS011;70799;48.000;10.584;2024-03-02T06:55:32;13.32;;;6.03;;
81336;SDS011;70799;48.000;10.584;2024-03-02T06:58:08;12.73;;;6.25;;
81336;SDS011;70799;48.000;10.584;2024-03-02T07:00:44;15.38;;;6.70;;
81336;SDS011;70799;48.000;10.584;2024-03-02T07:03:20;12.77;;;6.00;;
81336;SDS011;70799;48.000;10.584;2024-03-02T07:08:33;10.27;;;5.85;;
81336;SDS011;70799;48.000;10.584;2024-03-02T07:11:12;10.18;;;5.15;;
81336;SDS011;70799;48.000;10.584;2024-03-02T07:13:48;13.18;;;6.43;;
81336;SDS011;70799;48.000;10.584;2024-03-02T07:16:26;12.57;;;6.53;;
81336;SDS011;70799;48.000;10.584;2024-03-02T07:19:01;12.18;;;6.20;;
81336;SDS011;70799;48.000;10.584;2024-03-02T07:21:38;11.68;;;6.60;;
81336;SDS011;70799;48.000;10.584;2024-03-02T07:24:14;12.93;;;6.40;;
81336;SDS011;70799;48.000;10.584;2024-03-02T07:26:50;12.15;;;6.50;;
81336;SDS011;70799;48.000;10.584;2024-03-02T07:32:02;10.20;;;5.45;;
81336;SDS011;70799;48.000;10.584;2024-03-02T07:34:39;11.13;;;7.00;;
81336;SDS011;70799;48.000;10.584;2024-03-02T07:37:15;11.35;;;6.07;;
81336;SDS011;70799;48.000;10.584;2024-03-02T07:42:27;9.25;;;5.80;;
81336;SDS011;70799;48.000;10.584;2024-03-02T07:45:04;9.20;;;4.88;;
81336;SDS011;70799;48.000;10.584;2024-03-02T07:47:40;7.03;;;4.72;;
81336;SDS011;70799;48.000;10.584;2024-03-02T07:50:16;7.43;;;4.30;;
81336;SDS011;70799;48.000;10.584;2024-03-02T07:52:53;6.78;;;4.30;;
81336;SDS011;70799;48.000;10.584;2024-03-02T07:58:04;7.30;;;3.50;;
81336;SDS011;70799;48.000;10.584;2024-03-02T08:00:41;6.15;;;3.80;;
81336;SDS011;70799;48.000;10.584;2024-03-02T08:03:17;6.50;;;3.78;;
81336;SDS011;70799;48.000;10.584;2024-03-02T08:05:53;6.05;;;3.58;;
81336;SDS011;70799;48.000;10.584;2024-03-02T08:08:29;6.28;;;4.07;;
81336;SDS011;70799;48.000;10.584;2024-03-02T08:11:05;4.97;;;3.03;;
81336;SDS011;70799;48.000;10.584;2024-03-02T08:13:41;5.30;;;3.20;;
81336;SDS011;70799;48.000;10.584;2024-03-02T08:16:17;7.53;;;3.25;;
81336;SDS011;70799;48.000;10.584;2024-03-02T08:18:54;6.38;;;4.65;;
81336;SDS011;70799;48.000;10.584;2024-03-02T08:21:30;5.07;;;2.60;;
81336;SDS011;70799;48.000;10.584;2024-03-02T08:24:07;4.93;;;2.97;;
81336;SDS011;70799;48.000;10.584;2024-03-02T08:26:43;4.53;;;2.67;;
81336;SDS011;70799;48.000;10.584;2024-03-02T08:29:19;7.15;;;2.67;;
81336;SDS011;70799;48.000;10.584;2024-03-02T08:31:55;4.75;;;2.30;;
81336;SDS011;70799;48.000;10.584;2024-03-02T08:34:33;3.50;;;1.90;;
81336;SDS011;70799;48.000;10.584;2024-03-02T08:37:09;3.35;;;1.80;;
81336;SDS011;70799;48.000;10.584;2024-03-02T08:39:45;3.90;;;2.25;;
81336;SDS011;70799;48.000;10.584;2024-03-02T08:42:22;3.38;;;1.63;;
81336;SDS011;70799;48.000;10.584;2024-03-02T08:44:58;3.15;;;1.80;;
81336;SDS011;70799;48.000;10.584;2024-03-02T08:47:38;3.03;;;1.75;;
81336;SDS011;70799;48.000;10.584;2024-03-02T08:50:14;3.38;;;1.95;;
81336;SDS011;70799;48.000;10.584;2024-03-02T08:52:50;3.30;;;1.73;;
81336;SDS011;70799;48.000;10.584;2024-03-02T08:55:26;3.38;;;1.65;;
81336;SDS011;70799;48.000;10.584;2024-03-02T08:58:02;3.10;;;1.70;;
81336;SDS011;70799;48.000;10.584;2024-03-02T09:00:38;3.10;;;1.55;;
81336;SDS011;70799;48.000;10.584;2024-03-02T09:03:15;2.38;;;1.25;;
81336;SDS011;70799;48.000;10.584;2024-03-02T09:05:52;3.83;;;1.48;;
81336;SDS011;70799;48.000;10.584;2024-03-02T09:08:29;3.45;;;1.40;;
81336;SDS011;70799;48.000;10.584;2024-03-02T09:11:07;3.60;;;1.80;;
81336;SDS011;70799;48.000;10.584;2024-03-02T09:13:43;3.08;;;1.65;;
81336;SDS011;70799;48.000;10.584;2024-03-02T09:16:19;2.58;;;1.20;;
81336;SDS011;70799;48.000;10.584;2024-03-02T09:18:56;4.78;;;2.30;;
81336;SDS011;70799;48.000;10.584;2024-03-02T09:21:33;2.20;;;1.20;;
81336;SDS011;70799;48.000;10.584;2024-03-02T09:24:14;2.10;;;1.20;;
81336;SDS011;70799;48.000;10.584;2024-03-02T09:26:51;2.67;;;1.33;;
81336;SDS011;70799;48.000;10.584;2024-03-02T09:29:27;2.90;;;1.10;;
81336;SDS011;70799;48.000;10.584;2024-03-02T09:32:05;1.63;;;1.00;;
81336;SDS011;70799;48.000;10.584;2024-03-02T09:34:43;2.65;;;0.70;;
81336;SDS011;70799;48.000;10.584;2024-03-02T09:37:21;1.98;;;1.00;;
81336;SDS011;70799;48.000;10.584;2024-03-02T09:39:59;3.72;;;1.20;;
81336;SDS011;70799;48.000;10.584;2024-03-02T09:42:40;1.80;;;1.00;;
81336;SDS011;70799;48.000;10.584;2024-03-02T09:45:24;3.33;;;1.70;;
81336;SDS011;70799;48.000;10.584;2024-03-02T09:48:02;4.13;;;1.63;;
81336;SDS011;70799;48.000;10.584;2024-03-02T09:50:39;2.70;;;1.33;;
81336;SDS011;70799;48.000;10.584;2024-03-02T09:53:15;3.53;;;1.38;;
81336;SDS011;70799;48.000;10.584;2024-03-02T09:55:51;2.25;;;1.10;;
81336;SDS011;70799;48.000;10.584;2024-03-02T09:58:28;1.83;;;1.02;;
81336;SDS011;70799;48.000;10.584;2024-03-02T10:01:07;2.83;;;1.13;;
81336;SDS011;70799;48.000;10.584;2024-03-02T10:03:44;2.20;;;1.33;;
81336;SDS011;70799;48.000;10.584;2024-03-02T10:06:24;2.00;;;1.13;;
81336;SDS011;70799;48.000;10.584;2024-03-02T10:09:03;1.98;;;1.10;;
81336;SDS011;70799;48.000;10.584;2024-03-02T10:11:39;1.38;;;0.70;;
81336;SDS011;70799;48.000;10.584;2024-03-02T10:14:15;1.58;;;0.68;;
81336;SDS011;70799;48.000;10.584;2024-03-02T10:16:52;0.95;;;0.50;;
81336;SDS011;70799;48.000;10.584;2024-03-02T10:19:29;1.38;;;0.60;;
81336;SDS011;70799;48.000;10.584;2024-03-02T10:22:07;1.30;;;0.70;;
81336;SDS011;70799;48.000;10.584;2024-03-02T10:24:44;2.47;;;1.30;;
81336;SDS011;70799;48.000;10.584;2024-03-02T10:27:28;1.92;;;1.05;;
81336;SDS011;70799;48.000;10.584;2024-03-02T10:30:04;4.18;;;1.35;;
81336;SDS011;70799;48.000;10.584;2024-03-02T10:32:41;1.85;;;1.00;;
81336;SDS011;70799;48.000;10.584;2024-03-02T10:35:17;2.05;;;0.80;;
81336;SDS011;70799;48.000;10.584;2024-03-02T10:37:54;1.83;;;0.85;;
81336;SDS011;70799;48.000;10.584;2024-03-02T10:40:30;1.83;;;0.80;;
81336;SDS011;70799;48.000;10.584;2024-03-02T10:43:08;1.95;;;0.90;;
81336;SDS011;70799;48.000;10.584;2024-03-02T10:45:45;1.65;;;0.90;;
81336;SDS011;70799;48.000;10.584;2024-03-02T10:48:23;2.45;;;1.15;;
81336;SDS011;70799;48.000;10.584;2024-03-02T10:51:01;2.22;;;0.77;;
81336;SDS011;70799;48.000;10.584;2024-03-02T10:53:37;1.67;;;0.77;;
81336;SDS011;70799;48.000;10.584;2024-03-02T10:56:15;1.83;;;1.00;;
81336;SDS011;70799;48.000;10.584;2024-03-02T10:59:16;1.92;;;0.80;;
81336;SDS011;70799;48.000;10.584;2024-03-02T11:01:55;2.08;;;0.75;;
81336;SDS011;70799;48.000;10.584;2024-03-02T11:04:37;1.85;;;0.70;;
81336;SDS011;70799;48.000;10.584;2024-03-02T11:07:13;1.20;;;0.63;;
81336;SDS011;70799;48.000;10.584;2024-03-02T11:09:59;1.88;;;0.70;;
81336;SDS011;70799;48.000;10.584;2024-03-02T11:12:47;1.10;;;0.60;;
81336;SDS011;70799;48.000;10.584;2024-03-02T11:15:28;1.63;;;0.93;;
81336;SDS011;70799;48.000;10.584;2024-03-02T11:18:04;1.73;;;0.98;;
81336;SDS011;70799;48.000;10.584;2024-03-02T11:20:41;2.03;;;1.27;;
81336;SDS011;70799;48.000;10.584;2024-03-02T11:23:18;2.10;;;1.23;;
81336;SDS011;70799;48.000;10.584;2024-03-02T11:26:16;2.35;;;1.02;;
81336;SDS011;70799;48.000;10.584;2024-03-02T11:28:53;1.55;;;0.80;;
81336;SDS011;70799;48.000;10.584;2024-03-02T11:34:49;0.60;;;0.30;;
81336;SDS011;70799;48.000;10.584;2024-03-02T11:37:25;0.80;;;0.30;;
81336;SDS011;70799;48.000;10.584;2024-03-02T11:40:01;1.45;;;0.40;;
81336;SDS011;70799;48.000;10.584;2024-03-02T11:42:39;1.38;;;0.40;;
81336;SDS011;70799;48.000;10.584;2024-03-02T11:45:22;1.52;;;0.57;;
81336;SDS011;70799;48.000;10.584;2024-03-02T11:47:58;1.50;;;0.73;;
81336;SDS011;70799;48.000;10.584;2024-03-02T11:50:42;1.65;;;0.80;;
81336;SDS011;70799;48.000;10.584;2024-03-02T11:53:22;1.80;;;0.88;;
81336;SDS011;70799;48.000;10.584;2024-03-02T11:56:02;2.83;;;1.17;;
81336;SDS011;70799;48.000;10.584;2024-03-02T11:58:39;3.20;;;1.63;;
81336;SDS011;70799;48.000;10.584;2024-03-02T12:01:16;3.47;;;2.05;;
81336;SDS011;70799;48.000;10.584;2024-03-02T12:03:52;3.53;;;1.73;;
81336;SDS011;70799;48.000;10.584;2024-03-02T12:06:28;2.85;;;1.70;;
81336;SDS011;70799;48.000;10.584;2024-03-02T12:09:05;2.97;;;1.73;;
81336;SDS011;70799;48.000;10.584;2024-03-02T12:11:43;2.92;;;1.33;;
81336;SDS011;70799;48.000;10.584;2024-03-02T12:14:19;3.30;;;2.15;;
81336;SDS011;70799;48.000;10.584;2024-03-02T12:16:55;4.38;;;1.83;;
81336;SDS011;70799;48.000;10.584;2024-03-02T12:19:33;2.83;;;1.73;;
81336;SDS011;70799;48.000;10.584;2024-03-02T12:22:11;4.07;;;1.98;;
81336;SDS011;70799;48.000;10.584;2024-03-02T12:24:47;3.08;;;2.10;;
81336;SDS011;70799;48.000;10.584;2024-03-02T12:27:24;3.25;;;2.08;;
81336;SDS011;70799;48.000;10.584;2024-03-02T12:30:02;3.10;;;1.77;;
81336;SDS011;70799;48.000;10.584;2024-03-02T12:32:42;3.13;;;2.03;;
81336;SDS011;70799;48.000;10.584;2024-03-02T12:35:19;2.60;;;1.40;;
81336;SDS011;70799;48.000;10.584;2024-03-02T12:37:58;1.35;;;0.85;;
81336;SDS011;70799;48.000;10.584;2024-03-02T12:40:34;1.52;;;1.10;;
81336;SDS011;70799;48.000;10.584;2024-03-02T12:43:10;1.52;;;0.85;;
81336;SDS011;70799;48.000;10.584;2024-03-02T12:45:46;1.27;;;0.52;;
81336;SDS011;70799;48.000;10.584;2024-03-02T12:48:22;1.58;;;0.70;;
81336;SDS011;70799;48.000;10.584;2024-03-02T12:50:58;1.67;;;0.60;;
81336;SDS011;70799;48.000;10.584;2024-03-02T12:53:35;1.45;;;0.57;;
81336;SDS011;70799;48.000;10.584;2024-03-02T12:56:11;1.20;;;0.60;;
81336;SDS011;70799;48.000;10.584;2024-03-02T12:58:46;1.70;;;0.95;;
81336;SDS011;70799;48.000;10.584;2024-03-02T13:01:22;1.58;;;0.82;;
81336;SDS011;70799;48.000;10.584;2024-03-02T13:03:59;1.98;;;0.93;;
81336;SDS011;70799;48.000;10.584;2024-03-02T13:06:39;2.63;;;1.23;;
81336;SDS011;70799;48.000;10.584;2024-03-02T13:09:15;2.08;;;1.08;;
81336;SDS011;70799;48.000;10.584;2024-03-02T13:11:51;1.80;;;1.00;;
81336;SDS011;70799;48.000;10.584;2024-03-02T13:14:29;2.88;;;1.63;;
81336;SDS011;70799;48.000;10.584;2024-03-02T13:17:08;3.42;;;1.25;;
81336;SDS011;70799;48.000;10.584;2024-03-02T13:19:53;4.05;;;1.73;;
81336;SDS011;70799;48.000;10.584;2024-03-02T13:22:35;2.45;;;1.38;;
81336;SDS011;70799;48.000;10.584;2024-03-02T13:25:11;2.83;;;1.35;;
81336;SDS011;70799;48.000;10.584;2024-03-02T13:27:48;4.05;;;1.73;;
81336;SDS011;70799;48.000;10.584;2024-03-02T13:30:24;3.90;;;1.67;;
81336;SDS011;70799;48.000;10.584;2024-03-02T13:33:03;3.75;;;1.95;;
81336;SDS011;70799;48.000;10.584;2024-03-02T13:35:39;4.15;;;1.90;;
81336;SDS011;70799;48.000;10.584;2024-03-02T13:38:16;3.15;;;1.73;;
81336;SDS011;70799;48.000;10.584;2024-03-02T13:40:54;3.03;;;1.77;;
81336;SDS011;70799;48.000;10.584;2024-03-02T13:43:30;3.97;;;2.13;;
81336;SDS011;70799;48.000;10.584;2024-03-02T13:46:07;3.53;;;1.73;;
81336;SDS011;70799;48.000;10.584;2024-03-02T13:48:43;3.47;;;2.03;;
81336;SDS011;70799;48.000;10.584;2024-03-02T13:51:19;4.80;;;1.80;;
81336;SDS011;70799;48.000;10.584;2024-03-02T13:53:55;3.67;;;2.05;;
81336;SDS011;70799;48.000;10.584;2024-03-02T13:56:33;3.63;;;1.83;;
81336;SDS011;70799;48.000;10.584;2024-03-02T13:59:13;3.67;;;2.13;;
81336;SDS011;70799;48.000;10.584;2024-03-02T14:01:49;4.70;;;2.10;;
81336;SDS011;70799;48.000;10.584;2024-03-02T14:04:25;4.25;;;2.30;;
81336;SDS011;70799;48.000;10.584;2024-03-02T14:07:01;4.85;;;2.10;;
81336;SDS011;70799;48.000;10.584;2024-03-02T14:09:39;6.75;;;2.72;;
81336;SDS011;70799;48.000;10.584;2024-03-02T14:12:15;5.70;;;2.45;;
81336;SDS011;70799;48.000;10.584;2024-03-02T14:14:51;4.43;;;2.60;;
81336;SDS011;70799;48.000;10.584;2024-03-02T14:17:30;4.25;;;2.28;;
81336;SDS011;70799;48.000;10.584;2024-03-02T14:20:07;5.97;;;2.08;;
81336;SDS011;70799;48.000;10.584;2024-03-02T14:22:44;4.38;;;2.08;;
81336;SDS011;70799;48.000;10.584;2024-03-02T14:25:20;3.90;;;2.03;;
81336;SDS011;70799;48.000;10.584;2024-03-02T14:27:57;4.00;;;1.70;;
81336;SDS011;70799;48.000;10.584;2024-03-02T14:30:55;4.72;;;2.10;;
81336;SDS011;70799;48.000;10.584;2024-03-02T14:33:34;3.47;;;1.70;;
81336;SDS011;70799;48.000;10.584;2024-03-02T14:36:11;2.83;;;1.55;;
81336;SDS011;70799;48.000;10.584;2024-03-02T14:38:47;6.18;;;1.70;;
81336;SDS011;70799;48.000;10.584;2024-03-02T14:41:24;4.70;;;1.80;;
81336;SDS011;70799;48.000;10.584;2024-03-02T14:44:00;4.22;;;1.95;;
81336;SDS011;70799;48.000;10.584;2024-03-02T14:46:37;3.33;;;1.67;;
81336;SDS011;70799;48.000;10.584;2024-03-02T14:49:16;4.10;;;1.75;;
81336;SDS011;70799;48.000;10.584;2024-03-02T14:51:52;3.63;;;1.70;;
81336;SDS011;70799;48.000;10.584;2024-03-02T14:54:28;5.55;;;1.80;;
81336;SDS011;70799;48.000;10.584;2024-03-02T14:57:04;3.63;;;1.55;;
81336;SDS011;70799;48.000;10.584;2024-03-02T14:59:40;4.43;;;1.73;;
81336;SDS011;70799;48.000;10.584;2024-03-02T15:02:16;4.25;;;1.60;;
81336;SDS011;70799;48.000;10.584;2024-03-02T15:04:52;6.28;;;1.80;;
81336;SDS011;70799;48.000;10.584;2024-03-02T15:07:29;5.18;;;1.75;;
81336;SDS011;70799;48.000;10.584;2024-03-02T15:10:05;4.18;;;1.67;;
81336;SDS011;70799;48.000;10.584;2024-03-02T15:12:42;4.88;;;2.05;;
81336;SDS011;70799;48.000;10.584;2024-03-02T15:15:18;3.83;;;1.73;;
81336;SDS011;70799;48.000;10.584;2024-03-02T15:17:54;3.83;;;2.00;;
81336;SDS011;70799;48.000;10.584;2024-03-02T15:20:33;4.07;;;1.90;;
81336;SDS011;70799;48.000;10.584;2024-03-02T15:23:09;6.10;;;2.15;;
81336;SDS011;70799;48.000;10.584;2024-03-02T15:25:45;3.85;;;1.95;;
81336;SDS011;70799;48.000;10.584;2024-03-02T15:28:21;3.72;;;1.70;;
81336;SDS011;70799;48.000;10.584;2024-03-02T15:30:57;4.68;;;2.38;;
81336;SDS011;70799;48.000;10.584;2024-03-02T15:33:35;6.55;;;2.80;;
81336;SDS011;70799;48.000;10.584;2024-03-02T15:36:11;5.78;;;2.80;;
81336;SDS011;70799;48.000;10.584;2024-03-02T15:38:47;6.30;;;3.55;;
81336;SDS011;70799;48.000;10.584;2024-03-02T15:41:23;8.25;;;2.97;;
81336;SDS011;70799;48.000;10.584;2024-03-02T15:43:59;6.95;;;3.45;;
81336;SDS011;70799;48.000;10.584;2024-03-02T15:46:36;7.75;;;3.38;;
81336;SDS011;70799;48.000;10.584;2024-03-02T15:49:12;8.05;;;4.10;;
81336;SDS011;70799;48.000;10.584;2024-03-02T15:51:52;7.93;;;4.30;;
81336;SDS011;70799;48.000;10.584;2024-03-02T15:54:28;9.60;;;5.15;;
81336;SDS011;70799;48.000;10.584;2024-03-02T15:57:04;10.48;;;6.38;;
81336;SDS011;70799;48.000;10.584;2024-03-02T15:59:40;16.65;;;8.23;;
81336;SDS011;70799;48.000;10.584;2024-03-02T16:02:13;17.63;;;9.43;;
81336;SDS011;70799;48.000;10.584;2024-03-02T16:04:49;17.25;;;9.27;;
81336;SDS011;70799;48.000;10.584;2024-03-02T16:07:26;17.80;;;9.60;;
81336;SDS011;70799;48.000;10.584;2024-03-02T16:10:02;17.77;;;9.63;;
81336;SDS011;70799;48.000;10.584;2024-03-02T16:12:42;17.65;;;9.70;;
81336;SDS011;70799;48.000;10.584;2024-03-02T16:15:19;20.35;;;9.52;;
81336;SDS011;70799;48.000;10.584;2024-03-02T16:17:55;17.95;;;9.60;;
81336;SDS011;70799;48.000;10.584;2024-03-02T16:20:33;18.85;;;9.50;;
81336;SDS011;70799;48.000;10.584;2024-03-02T16:23:09;15.95;;;8.68;;